Tilly Russ — V2ER9 — position and weather

sailwx.info

Track history (hours):
 
Tides and Currents Weather Stations Pressure Air Temp Water Temp Dewpoint Dewpoint Depression Visibility Wind Speed Wind Dir Waves Ship Positions

Tilly Russ

Last reported at 2017-Dec-04 10:22 UTC. Time now 2017-Dec-14 13:09 UTC.
Position N 22°34' E 120°19'.
Warning: this ship's position is 10 days out of date.

Length 161 m; draft 8.1 m.

Type: Ship (hazmat cat A). MMSI: 305568000.

Date/timePositionNaut miles runAvg speedWind from/ knotsBaromVisibWave heightAir tempDewpointWater temp
2017-Dec-04 10:22N 22°34' E 120°19'0 0.0
2017-Dec-04 09:52N 22°34' E 120°19'0 0.0
2017-Dec-04 09:28N 22°34' E 120°19'0 0.0
2017-Dec-04 08:58N 22°34' E 120°19'0 0.0
2017-Dec-04 08:28N 22°34' E 120°19'0 0.0
2017-Dec-04 07:58N 22°34' E 120°19'0 0.0
2017-Dec-04 07:28N 22°34' E 120°19'0 0.9
2017-Dec-04 07:00N 22°33' E 120°19'5 9.5
2017-Dec-04 06:30N 22°32' E 120°14'5 9.4
2017-Dec-04 06:00N 22°30' E 120°10'5 9.4
2017-Dec-04 05:30N 22°26' E 120°06'4 7.8
2017-Dec-04 05:00N 22°24' E 120°03'0 0.7
2017-Dec-04 04:30N 22°24' E 120°03'0 0.7
2017-Dec-04 04:00N 22°24' E 120°03'0 0.6
2017-Dec-04 03:30N 22°24' E 120°04'0 0.4
2017-Dec-04 03:00N 22°25' E 120°04'0 0.9
2017-Dec-04 02:30N 22°25' E 120°04'4 8.0
2017-Dec-04 02:00N 22°21' E 120°05'5 9.4
2017-Dec-04 01:28N 22°16' E 120°07'  
2017-Nov-24 20:09N 22°18' E 120°08'214.8
2017-Nov-24 20:00N 22°20' E 120°08'714.3
2017-Nov-24 19:30N 22°27' E 120°09'713.2
2017-Nov-24 19:00N 22°33' E 120°13'611.3
2017-Nov-24 18:30N 22°33' E 120°19'1 1.1
2017-Nov-24 17:59N 22°34' E 120°19'0 0.0
2017-Nov-24 17:30N 22°34' E 120°19'  
Track history (hours):
 
Tides and Currents Weather Stations Pressure Air Temp Water Temp Dewpoint Dewpoint Depression Visibility Wind Speed Wind Dir Waves Ship Positions

Tilly Russ

Last reported at 2017-Dec-04 10:22 UTC. Time now 2017-Dec-14 13:09 UTC.
Position N 22°34' E 120°19'.
Warning: this ship's position is 10 days out of date.

Length 161 m; draft 8.1 m.

Type: Ship (hazmat cat A). MMSI: 305568000.

Date/timePositionNaut miles runAvg speedWind from/ knotsBaromVisibWave heightAir tempDewpointWater temp
2017-Dec-04 10:22N 22°34' E 120°19'0 0.0
2017-Dec-04 09:52N 22°34' E 120°19'0 0.0
2017-Dec-04 09:28N 22°34' E 120°19'0 0.0
2017-Dec-04 08:58N 22°34' E 120°19'0 0.0
2017-Dec-04 08:28N 22°34' E 120°19'0 0.0
2017-Dec-04 07:58N 22°34' E 120°19'0 0.0
2017-Dec-04 07:28N 22°34' E 120°19'0 0.9
2017-Dec-04 07:00N 22°33' E 120°19'5 9.5
2017-Dec-04 06:30N 22°32' E 120°14'5 9.4
2017-Dec-04 06:00N 22°30' E 120°10'5 9.4
2017-Dec-04 05:30N 22°26' E 120°06'4 7.8
2017-Dec-04 05:00N 22°24' E 120°03'0 0.7
2017-Dec-04 04:30N 22°24' E 120°03'0 0.7
2017-Dec-04 04:00N 22°24' E 120°03'0 0.6
2017-Dec-04 03:30N 22°24' E 120°04'0 0.4
2017-Dec-04 03:00N 22°25' E 120°04'0 0.9
2017-Dec-04 02:30N 22°25' E 120°04'4 8.0
2017-Dec-04 02:00N 22°21' E 120°05'5 9.4
2017-Dec-04 01:28N 22°16' E 120°07'  
2017-Nov-24 20:09N 22°18' E 120°08'214.8
2017-Nov-24 20:00N 22°20' E 120°08'714.3
2017-Nov-24 19:30N 22°27' E 120°09'713.2
2017-Nov-24 19:00N 22°33' E 120°13'611.3
2017-Nov-24 18:30N 22°33' E 120°19'1 1.1
2017-Nov-24 17:59N 22°34' E 120°19'0 0.0
2017-Nov-24 17:30N 22°34' E 120°19'  

Dump ship's entire track history